sensor_id;sensor_type;location;lat;lon;timestamp;pressure;altitude;pressure_sealevel;temperature;humidity
21109;BME280;10712;52.944;9.098;2023-02-28T00:00:31;103060.50;;;9.67;47.83
21109;BME280;10712;52.944;9.098;2023-02-28T00:02:58;103052.63;;;9.61;48.17
21109;BME280;10712;52.944;9.098;2023-02-28T00:05:26;103065.06;;;9.59;48.14
21109;BME280;10712;52.944;9.098;2023-02-28T00:07:53;103060.72;;;9.53;48.04
21109;BME280;10712;52.944;9.098;2023-02-28T00:10:27;103052.00;;;9.43;47.92
21109;BME280;10712;52.944;9.098;2023-02-28T00:12:58;103050.34;;;9.38;48.01
21109;BME280;10712;52.944;9.098;2023-02-28T00:15:25;103059.19;;;9.40;47.99
21109;BME280;10712;52.944;9.098;2023-02-28T00:17:51;103060.88;;;9.44;47.84
21109;BME280;10712;52.944;9.098;2023-02-28T00:20:18;103060.88;;;9.44;47.77
21109;BME280;10712;52.944;9.098;2023-02-28T00:22:50;103057.38;;;9.40;47.57
21109;BME280;10712;52.944;9.098;2023-02-28T00:25:21;103061.06;;;9.33;47.52
21109;BME280;10712;52.944;9.098;2023-02-28T00:27:48;103069.09;;;9.27;47.60
21109;BME280;10712;52.944;9.098;2023-02-28T00:30:19;103062.97;;;9.24;47.46
21109;BME280;10712;52.944;9.098;2023-02-28T00:32:45;103068.38;;;9.19;47.60
21109;BME280;10712;52.944;9.098;2023-02-28T00:35:12;103067.63;;;9.11;47.52
21109;BME280;10712;52.944;9.098;2023-02-28T00:37:41;103058.81;;;9.06;47.67
21109;BME280;10712;52.944;9.098;2023-02-28T00:40:09;103069.44;;;9.06;47.55
21109;BME280;10712;52.944;9.098;2023-02-28T00:42:35;103064.19;;;9.01;47.62
21109;BME280;10712;52.944;9.098;2023-02-28T00:45:03;103072.19;;;9.00;47.50
21109;BME280;10712;52.944;9.098;2023-02-28T00:47:31;103066.06;;;8.95;47.74
21109;BME280;10712;52.944;9.098;2023-02-28T00:49:57;103067.94;;;8.90;48.31
21109;BME280;10712;52.944;9.098;2023-02-28T00:52:23;103071.47;;;8.89;47.89
21109;BME280;10712;52.944;9.098;2023-02-28T00:54:48;103073.28;;;8.87;47.76
21109;BME280;10712;52.944;9.098;2023-02-28T00:57:14;103073.28;;;8.87;47.71
21109;BME280;10712;52.944;9.098;2023-02-28T00:59:40;103075.13;;;8.82;47.80
21109;BME280;10712;52.944;9.098;2023-02-28T01:02:06;103074.31;;;8.77;47.91
21109;BME280;10712;52.944;9.098;2023-02-28T01:04:32;103071.75;;;8.71;48.12
21109;BME280;10712;52.944;9.098;2023-02-28T01:07:00;103071.75;;;8.71;48.19
21109;BME280;10712;52.944;9.098;2023-02-28T01:09:28;103073.47;;;8.72;48.17
21109;BME280;10712;52.944;9.098;2023-02-28T01:11:54;103072.63;;;8.71;48.25
21109;BME280;10712;52.944;9.098;2023-02-28T01:14:20;103076.19;;;8.68;48.29
21109;BME280;10712;52.944;9.098;2023-02-28T01:16:45;103072.66;;;8.66;48.33
21109;BME280;10712;52.944;9.098;2023-02-28T01:19:12;103073.56;;;8.65;48.20
21109;BME280;10712;52.944;9.098;2023-02-28T01:21:38;103075.41;;;8.60;48.30
21109;BME280;10712;52.944;9.098;2023-02-28T01:24:05;103072.81;;;8.56;48.23
21109;BME280;10712;52.944;9.098;2023-02-28T01:26:32;103079.09;;;8.49;48.23
21109;BME280;10712;52.944;9.098;2023-02-28T01:28:58;103080.88;;;8.47;48.23
21109;BME280;10712;52.944;9.098;2023-02-28T01:31:25;103082.69;;;8.45;48.12
21109;BME280;10712;52.944;9.098;2023-02-28T01:33:51;103085.34;;;8.45;48.17
21109;BME280;10712;52.944;9.098;2023-02-28T01:36:23;103076.53;;;8.41;48.11
21109;BME280;10712;52.944;9.098;2023-02-28T01:38:50;103073.88;;;8.41;48.03
21109;BME280;10712;52.944;9.098;2023-02-28T01:41:27;103079.22;;;8.38;47.98
21109;BME280;10712;52.944;9.098;2023-02-28T01:47:27;103069.53;;;8.36;47.93
21109;BME280;10712;52.944;9.098;2023-02-28T01:49:57;103081.94;;;8.35;48.02
21109;BME280;10712;52.944;9.098;2023-02-28T01:52:25;103079.31;;;8.30;47.99
21109;BME280;10712;52.944;9.098;2023-02-28T01:54:55;103079.28;;;8.32;47.90
21109;BME280;10712;52.944;9.098;2023-02-28T01:57:29;103077.56;;;8.28;47.92
21109;BME280;10712;52.944;9.098;2023-02-28T02:00:09;103072.31;;;8.22;47.76
21109;BME280;10712;52.944;9.098;2023-02-28T02:02:41;103074.97;;;8.20;47.68
21109;BME280;10712;52.944;9.098;2023-02-28T02:05:17;103075.06;;;8.14;47.69
21109;BME280;10712;52.944;9.098;2023-02-28T02:07:48;103077.72;;;8.11;47.53
21109;BME280;10712;52.944;9.098;2023-02-28T02:11:02;103073.28;;;8.12;47.60
21109;BME280;10712;52.944;9.098;2023-02-28T02:13:14;103074.19;;;8.11;47.72
21109;BME280;10712;52.944;9.098;2023-02-28T02:18:52;103082.16;;;8.09;47.64
21109;BME280;10712;52.944;9.098;2023-02-28T02:30:44;103072.59;;;7.95;47.30
21109;BME280;10712;52.944;9.098;2023-02-28T02:36:05;103076.22;;;7.87;47.34
21109;BME280;10712;52.944;9.098;2023-02-28T02:38:38;103072.69;;;7.85;47.23
21109;BME280;10712;52.944;9.098;2023-02-28T02:41:18;103084.19;;;7.87;47.33
21109;BME280;10712;52.944;9.098;2023-02-28T02:43:52;103074.47;;;7.86;47.24
21109;BME280;10712;52.944;9.098;2023-02-28T02:46:30;103072.69;;;7.85;47.19
21109;BME280;10712;52.944;9.098;2023-02-28T02:49:00;103077.13;;;7.83;47.12
21109;BME280;10712;52.944;9.098;2023-02-28T02:51:32;103078.06;;;7.78;47.24
21109;BME280;10712;52.944;9.098;2023-02-28T02:54:08;103076.31;;;7.78;46.92
21109;BME280;10712;52.944;9.098;2023-02-28T02:56:43;103080.72;;;7.76;47.11
21109;BME280;10712;52.944;9.098;2023-02-28T02:59:15;103077.19;;;7.76;47.16
21109;BME280;10712;52.944;9.098;2023-02-28T03:01:55;103082.50;;;7.76;47.12
21109;BME280;10712;52.944;9.098;2023-02-28T03:04:25;103077.25;;;7.68;47.11
21109;BME280;10712;52.944;9.098;2023-02-28T03:06:54;103076.44;;;7.63;47.21
21109;BME280;10712;52.944;9.098;2023-02-28T03:09:22;103072.94;;;7.58;47.03
21109;BME280;10712;52.944;9.098;2023-02-28T03:11:51;103080.03;;;7.59;47.05
21109;BME280;10712;52.944;9.098;2023-02-28T03:17:34;103074.84;;;7.44;46.86
21109;BME280;10712;52.944;9.098;2023-02-28T03:20:36;103069.56;;;7.39;47.05
21109;BME280;10712;52.944;9.098;2023-02-28T03:23:19;103068.66;;;7.40;47.10
21109;BME280;10712;52.944;9.098;2023-02-28T03:26:04;103072.19;;;7.41;47.27
21109;BME280;10712;52.944;9.098;2023-02-28T03:28:55;103075.72;;;7.43;47.12
21109;BME280;10712;52.944;9.098;2023-02-28T03:31:41;103074.84;;;7.41;47.12
21109;BME280;10712;52.944;9.098;2023-02-28T03:34:22;103076.59;;;7.42;47.13
21109;BME280;10712;52.944;9.098;2023-02-28T03:36:56;103078.44;;;7.37;46.98
21109;BME280;10712;52.944;9.098;2023-02-28T03:39:49;103080.28;;;7.26;47.00
21109;BME280;10712;52.944;9.098;2023-02-28T03:42:21;103084.72;;;7.19;46.93
21109;BME280;10712;52.944;9.098;2023-02-28T03:45:00;103082.16;;;7.08;47.02
21109;BME280;10712;52.944;9.098;2023-02-28T03:48:20;103083.97;;;7.03;46.91
21109;BME280;10712;52.944;9.098;2023-02-28T03:50:52;103085.75;;;6.98;46.99
21109;BME280;10712;52.944;9.098;2023-02-28T03:53:33;103084.06;;;6.85;46.67
21109;BME280;10712;52.944;9.098;2023-02-28T03:56:22;103081.44;;;6.82;46.94
21109;BME280;10712;52.944;9.098;2023-02-28T03:59:10;103093.81;;;6.82;47.20
21109;BME280;10712;52.944;9.098;2023-02-28T04:01:45;103092.91;;;6.78;47.06
21109;BME280;10712;52.944;9.098;2023-02-28T04:04:12;103092.03;;;6.82;47.14
21109;BME280;10712;52.944;9.098;2023-02-28T04:06:40;103090.28;;;6.80;47.00
21109;BME280;10712;52.944;9.098;2023-02-28T04:09:10;103085.91;;;6.74;47.15
21109;BME280;10712;52.944;9.098;2023-02-28T04:14:06;103083.34;;;6.53;47.01
21109;BME280;10712;52.944;9.098;2023-02-28T04:16:34;103095.72;;;6.46;46.94
21109;BME280;10712;52.944;9.098;2023-02-28T04:19:02;103096.63;;;6.41;47.16
21109;BME280;10712;52.944;9.098;2023-02-28T04:21:37;103103.66;;;6.45;47.41
21109;BME280;10712;52.944;9.098;2023-02-28T04:24:05;103098.34;;;6.51;47.21
21109;BME280;10712;52.944;9.098;2023-02-28T04:26:34;103093.94;;;6.54;47.43
21109;BME280;10712;52.944;9.098;2023-02-28T04:29:01;103093.03;;;6.51;47.39
21109;BME280;10712;52.944;9.098;2023-02-28T04:31:27;103100.16;;;6.40;47.24
21109;BME280;10712;52.944;9.098;2023-02-28T04:33:53;103098.41;;;6.32;47.11
21109;BME280;10712;52.944;9.098;2023-02-28T04:36:19;103098.41;;;6.31;47.45
21109;BME280;10712;52.944;9.098;2023-02-28T04:38:45;103107.28;;;6.28;47.34
21109;BME280;10712;52.944;9.098;2023-02-28T04:41:15;103112.56;;;6.16;47.10
21109;BME280;10712;52.944;9.098;2023-02-28T04:43:42;103107.31;;;6.07;47.12
21109;BME280;10712;52.944;9.098;2023-02-28T04:46:09;103098.47;;;6.02;47.30
21109;BME280;10712;52.944;9.098;2023-02-28T04:48:37;103098.50;;;5.99;47.36
21109;BME280;10712;52.944;9.098;2023-02-28T04:51:11;103099.38;;;6.00;47.43
21109;BME280;10712;52.944;9.098;2023-02-28T04:53:39;103103.78;;;6.08;47.69
21109;BME280;10712;52.944;9.098;2023-02-28T04:56:08;103107.28;;;6.16;47.63
21109;BME280;10712;52.944;9.098;2023-02-28T04:58:34;103104.63;;;6.25;47.50
21109;BME280;10712;52.944;9.098;2023-02-28T05:01:27;103102.84;;;6.29;47.75
21109;BME280;10712;52.944;9.098;2023-02-28T05:03:55;103105.47;;;6.33;47.71
21109;BME280;10712;52.944;9.098;2023-02-28T05:06:25;103093.13;;;6.32;47.75
21109;BME280;10712;52.944;9.098;2023-02-28T05:08:52;103095.75;;;6.29;47.82
21109;BME280;10712;52.944;9.098;2023-02-28T05:11:30;103099.34;;;6.18;47.72
21109;BME280;10712;52.944;9.098;2023-02-28T05:14:04;103098.50;;;6.05;47.58
21109;BME280;10712;52.944;9.098;2023-02-28T05:16:31;103113.47;;;6.09;47.61
21109;BME280;10712;52.944;9.098;2023-02-28T05:18:57;103106.44;;;6.08;47.65
21109;BME280;10712;52.944;9.098;2023-02-28T05:21:32;103110.81;;;6.09;47.54
21109;BME280;10712;52.944;9.098;2023-02-28T05:24:07;103102.00;;;6.10;47.76
21109;BME280;10712;52.944;9.098;2023-02-28T05:26:40;103105.53;;;6.15;47.50
21109;BME280;10712;52.944;9.098;2023-02-28T05:29:07;103109.03;;;6.17;47.63
21109;BME280;10712;52.944;9.098;2023-02-28T05:31:33;103113.47;;;6.18;47.60
21109;BME280;10712;52.944;9.098;2023-02-28T05:33:59;103120.53;;;6.21;47.43
21109;BME280;10712;52.944;9.098;2023-02-28T05:36:25;103116.09;;;6.20;47.51
21109;BME280;10712;52.944;9.098;2023-02-28T05:38:51;103114.34;;;6.17;47.42
21109;BME280;10712;52.944;9.098;2023-02-28T05:41:19;103118.78;;;6.14;47.47
21109;BME280;10712;52.944;9.098;2023-02-28T05:43:46;103122.31;;;6.08;47.22
21109;BME280;10712;52.944;9.098;2023-02-28T05:46:12;103123.19;;;6.06;47.49
21109;BME280;10712;52.944;9.098;2023-02-28T05:48:41;103117.91;;;6.06;47.27
21109;BME280;10712;52.944;9.098;2023-02-28T05:51:08;103125.81;;;6.09;47.36
21109;BME280;10712;52.944;9.098;2023-02-28T05:53:35;103123.16;;;6.09;47.24
21109;BME280;10712;52.944;9.098;2023-02-28T05:56:01;103124.94;;;6.11;47.26
21109;BME280;10712;52.944;9.098;2023-02-28T05:58:28;103126.69;;;6.12;47.16
21109;BME280;10712;52.944;9.098;2023-02-28T06:00:57;103133.75;;;6.12;47.12
21109;BME280;10712;52.944;9.098;2023-02-28T06:03:24;103130.25;;;6.08;47.29
21109;BME280;10712;52.944;9.098;2023-02-28T06:05:50;103136.41;;;6.06;47.28
21109;BME280;10712;52.944;9.098;2023-02-28T06:08:16;103132.88;;;6.05;47.31
21109;BME280;10712;52.944;9.098;2023-02-28T06:10:42;103129.34;;;6.05;47.42
21109;BME280;10712;52.944;9.098;2023-02-28T06:13:08;103134.66;;;6.03;47.35
21109;BME280;10712;52.944;9.098;2023-02-28T06:15:33;103134.66;;;5.89;47.04
21109;BME280;10712;52.944;9.098;2023-02-28T06:18:00;103139.03;;;5.83;47.10
21109;BME280;10712;52.944;9.098;2023-02-28T06:20:27;103136.41;;;5.86;47.36
21109;BME280;10712;52.944;9.098;2023-02-28T06:22:57;103140.81;;;5.87;47.34
21109;BME280;10712;52.944;9.098;2023-02-28T06:25:27;103139.06;;;5.80;47.39
21109;BME280;10712;52.944;9.098;2023-02-28T06:27:54;103144.34;;;5.83;47.36
21109;BME280;10712;52.944;9.098;2023-02-28T06:30:20;103146.13;;;5.87;47.37
21109;BME280;10712;52.944;9.098;2023-02-28T06:32:52;103147.00;;;5.86;47.27
21109;BME280;10712;52.944;9.098;2023-02-28T06:35:18;103145.25;;;5.89;47.32
21109;BME280;10712;52.944;9.098;2023-02-28T06:37:44;103150.53;;;5.88;47.36
21109;BME280;10712;52.944;9.098;2023-02-28T06:40:11;103151.41;;;5.90;47.52
21109;BME280;10712;52.944;9.098;2023-02-28T06:42:38;103149.66;;;5.92;47.46
21109;BME280;10712;52.944;9.098;2023-02-28T06:45:04;103154.94;;;5.92;47.38
21109;BME280;10712;52.944;9.098;2023-02-28T06:47:36;103155.84;;;5.92;47.50
21109;BME280;10712;52.944;9.098;2023-02-28T06:50:03;103160.25;;;5.92;47.60
21109;BME280;10712;52.944;9.098;2023-02-28T06:52:29;103153.19;;;5.94;47.59
21109;BME280;10712;52.944;9.098;2023-02-28T06:54:55;103157.59;;;5.97;47.51
21109;BME280;10712;52.944;9.098;2023-02-28T06:57:35;103158.47;;;6.00;47.28
21109;BME280;10712;52.944;9.098;2023-02-28T07:00:08;103158.47;;;5.97;47.46
21109;BME280;10712;52.944;9.098;2023-02-28T07:02:37;103159.34;;;5.98;47.50
21109;BME280;10712;52.944;9.098;2023-02-28T07:05:06;103162.00;;;5.99;47.42
21109;BME280;10712;52.944;9.098;2023-02-28T07:07:32;103164.63;;;6.02;47.70
21109;BME280;10712;52.944;9.098;2023-02-28T07:09:58;103169.94;;;6.07;47.49
21109;BME280;10712;52.944;9.098;2023-02-28T07:12:24;103174.34;;;6.09;47.67
21109;BME280;10712;52.944;9.098;2023-02-28T07:14:50;103166.41;;;6.11;47.67
21109;BME280;10712;52.944;9.098;2023-02-28T07:17:16;103172.59;;;6.14;47.64
21109;BME280;10712;52.944;9.098;2023-02-28T07:19:42;103170.81;;;6.19;47.61
21109;BME280;10712;52.944;9.098;2023-02-28T07:22:07;103169.91;;;6.23;47.42
21109;BME280;10712;52.944;9.098;2023-02-28T07:24:33;103170.78;;;6.22;47.55
21109;BME280;10712;52.944;9.098;2023-02-28T07:26:59;103170.78;;;6.24;47.74
21109;BME280;10712;52.944;9.098;2023-02-28T07:29:26;103177.84;;;6.26;47.76
21109;BME280;10712;52.944;9.098;2023-02-28T07:31:52;103175.19;;;6.37;47.81
21109;BME280;10712;52.944;9.098;2023-02-28T07:34:20;103171.66;;;6.40;47.85
21109;BME280;10712;52.944;9.098;2023-02-28T07:36:45;103177.84;;;6.42;47.95
21109;BME280;10712;52.944;9.098;2023-02-28T07:39:11;103178.69;;;6.45;48.00
21109;BME280;10712;52.944;9.098;2023-02-28T07:41:37;103174.28;;;6.49;48.05
21109;BME280;10712;52.944;9.098;2023-02-28T07:44:10;103176.91;;;6.52;48.15
21109;BME280;10712;52.944;9.098;2023-02-28T07:46:36;103183.09;;;6.57;48.07
21109;BME280;10712;52.944;9.098;2023-02-28T07:49:02;103185.72;;;6.60;48.14
21109;BME280;10712;52.944;9.098;2023-02-28T07:51:31;103188.34;;;6.67;48.11
21109;BME280;10712;52.944;9.098;2023-02-28T07:53:58;103181.25;;;6.71;48.09
21109;BME280;10712;52.944;9.098;2023-02-28T07:56:23;103180.38;;;6.75;48.10
21109;BME280;10712;52.944;9.098;2023-02-28T07:58:49;103183.91;;;6.77;48.24
21109;BME280;10712;52.944;9.098;2023-02-28T08:01:15;103186.53;;;6.79;48.20
21109;BME280;10712;52.944;9.098;2023-02-28T08:03:41;103189.16;;;6.85;48.17
21109;BME280;10712;52.944;9.098;2023-02-28T08:06:15;103190.03;;;6.88;48.32
21109;BME280;10712;52.944;9.098;2023-02-28T08:08:41;103185.59;;;6.96;48.27
21109;BME280;10712;52.944;9.098;2023-02-28T08:11:07;103193.53;;;7.01;48.17
21109;BME280;10712;52.944;9.098;2023-02-28T08:13:33;103193.47;;;7.05;48.43
21109;BME280;10712;52.944;9.098;2023-02-28T08:16:02;103189.94;;;7.06;48.48
21109;BME280;10712;52.944;9.098;2023-02-28T08:18:29;103182.88;;;7.11;48.55
21109;BME280;10712;52.944;9.098;2023-02-28T08:20:55;103188.16;;;7.18;48.73
21109;BME280;10712;52.944;9.098;2023-02-28T08:23:22;103181.03;;;7.23;48.73
21109;BME280;10712;52.944;9.098;2023-02-28T08:25:56;103187.19;;;7.32;48.66
21109;BME280;10712;52.944;9.098;2023-02-28T08:28:23;103188.88;;;7.41;48.68
21109;BME280;10712;52.944;9.098;2023-02-28T08:30:48;103184.47;;;7.46;48.79
21109;BME280;10712;52.944;9.098;2023-02-28T08:33:14;103173.81;;;7.52;48.81
21109;BME280;10712;52.944;9.098;2023-02-28T08:35:40;103180.84;;;7.56;48.68
21109;BME280;10712;52.944;9.098;2023-02-28T08:38:06;103190.50;;;7.65;48.87
21109;BME280;10712;52.944;9.098;2023-02-28T08:40:31;103182.50;;;7.72;49.04
21109;BME280;10712;52.944;9.098;2023-02-28T08:42:57;103188.63;;;7.80;49.04
21109;BME280;10712;52.944;9.098;2023-02-28T08:45:24;103191.22;;;7.86;49.24
21109;BME280;10712;52.944;9.098;2023-02-28T08:47:50;103189.41;;;7.95;49.25
21109;BME280;10712;52.944;9.098;2023-02-28T08:50:18;103196.44;;;8.02;49.03
21109;BME280;10712;52.944;9.098;2023-02-28T08:52:44;103193.72;;;8.06;49.15
21109;BME280;10712;52.944;9.098;2023-02-28T08:55:10;103186.56;;;8.13;49.20
21109;BME280;10712;52.944;9.098;2023-02-28T08:57:36;103185.56;;;8.23;49.20
21109;BME280;10712;52.944;9.098;2023-02-28T09:00:04;103187.28;;;8.30;49.27
21109;BME280;10712;52.944;9.098;2023-02-28T09:02:33;103182.84;;;8.37;49.56
21109;BME280;10712;52.944;9.098;2023-02-28T09:04:59;103181.84;;;8.44;49.29
21109;BME280;10712;52.944;9.098;2023-02-28T09:07:25;103188.88;;;8.52;49.28
21109;BME280;10712;52.944;9.098;2023-02-28T09:09:51;103187.00;;;8.60;49.41
21109;BME280;10712;52.944;9.098;2023-02-28T09:12:25;103185.16;;;8.68;49.46
21109;BME280;10712;52.944;9.098;2023-02-28T09:14:52;103188.53;;;8.80;49.32
21109;BME280;10712;52.944;9.098;2023-02-28T09:17:18;103191.09;;;8.90;49.52
21109;BME280;10712;52.944;9.098;2023-02-28T09:19:45;103182.94;;;9.04;49.44
21109;BME280;10712;52.944;9.098;2023-02-28T09:22:12;103180.97;;;9.18;49.32
21109;BME280;10712;52.944;9.098;2023-02-28T09:24:38;103182.56;;;9.31;49.24
21109;BME280;10712;52.944;9.098;2023-02-28T09:27:04;103185.03;;;9.43;49.15
21109;BME280;10712;52.944;9.098;2023-02-28T09:29:33;103187.53;;;9.56;49.06
21109;BME280;10712;52.944;9.098;2023-02-28T09:32:00;103183.84;;;9.66;48.91
21109;BME280;10712;52.944;9.098;2023-02-28T09:34:28;103187.19;;;9.77;48.63
21109;BME280;10712;52.944;9.098;2023-02-28T09:36:56;103189.41;;;10.03;47.76
21109;BME280;10712;52.944;9.098;2023-02-28T09:39:22;103188.47;;;10.08;47.09
21109;BME280;10712;52.944;9.098;2023-02-28T09:41:52;103188.28;;;10.20;46.46
21109;BME280;10712;52.944;9.098;2023-02-28T09:44:26;103191.66;;;10.30;46.63
21109;BME280;10712;52.944;9.098;2023-02-28T09:47:01;103191.50;;;10.38;46.55
21109;BME280;10712;52.944;9.098;2023-02-28T09:49:41;103184.06;;;10.55;46.03
21109;BME280;10712;52.944;9.098;2023-02-28T09:52:17;103182.06;;;10.66;45.83
21109;BME280;10712;52.944;9.098;2023-02-28T09:54:45;103188.16;;;10.73;45.58
21109;BME280;10712;52.944;9.098;2023-02-28T09:57:36;103191.56;;;10.81;45.33
21109;BME280;10712;52.944;9.098;2023-02-28T10:05:50;103191.28;;;10.94;43.58
21109;BME280;10712;52.944;9.098;2023-02-28T10:08:34;103201.81;;;11.00;42.98
21109;BME280;10712;52.944;9.098;2023-02-28T10:11:10;103200.84;;;11.04;42.66
21109;BME280;10712;52.944;9.098;2023-02-28T10:16:53;103195.28;;;11.14;40.75
21109;BME280;10712;52.944;9.098;2023-02-28T10:22:17;103206.66;;;11.23;39.75
21109;BME280;10712;52.944;9.098;2023-02-28T10:24:49;103196.72;;;11.30;39.02
21109;BME280;10712;52.944;9.098;2023-02-28T10:27:21;103201.00;;;11.38;39.08
21109;BME280;10712;52.944;9.098;2023-02-28T10:29:51;103198.97;;;11.48;39.01
21109;BME280;10712;52.944;9.098;2023-02-28T10:32:21;103196.97;;;11.58;38.28
21109;BME280;10712;52.944;9.098;2023-02-28T10:35:19;103191.00;;;11.85;36.82
21109;BME280;10712;52.944;9.098;2023-02-28T10:37:54;103196.94;;;11.98;36.84
21109;BME280;10712;52.944;9.098;2023-02-28T10:43:00;103199.91;;;12.21;36.38
21109;BME280;10712;52.944;9.098;2023-02-28T10:45:31;103195.41;;;12.23;36.53
21109;BME280;10712;52.944;9.098;2023-02-28T10:58:57;103196.97;;;12.93;33.04
21109;BME280;10712;52.944;9.098;2023-02-28T11:01:40;103193.31;;;12.97;33.28
21109;BME280;10712;52.944;9.098;2023-02-28T11:04:38;103188.84;;;12.98;33.72
21109;BME280;10712;52.944;9.098;2023-02-28T11:07:21;103183.38;;;13.01;33.97
21109;BME280;10712;52.944;9.098;2023-02-28T11:09:57;103177.53;;;13.19;33.48
21109;BME280;10712;52.944;9.098;2023-02-28T11:12:37;103175.66;;;13.21;33.70
21109;BME280;10712;52.944;9.098;2023-02-28T11:15:27;103173.09;;;13.18;33.99
21109;BME280;10712;52.944;9.098;2023-02-28T11:18:24;103172.00;;;13.25;34.04
21109;BME280;10712;52.944;9.098;2023-02-28T11:20:56;103169.19;;;13.28;32.91
21109;BME280;10712;52.944;9.098;2023-02-28T11:23:26;103164.97;;;13.21;33.61
21109;BME280;10712;52.944;9.098;2023-02-28T11:25:59;103163.72;;;13.33;34.05
21109;BME280;10712;52.944;9.098;2023-02-28T11:28:37;103155.13;;;13.50;33.79
21109;BME280;10712;52.944;9.098;2023-02-28T11:33:55;103158.84;;;13.46;32.64
21109;BME280;10712;52.944;9.098;2023-02-28T11:36:31;103155.72;;;13.59;33.25
21109;BME280;10712;52.944;9.098;2023-02-28T11:39:08;103164.19;;;13.73;31.92
21109;BME280;10712;52.944;9.098;2023-02-28T11:45:02;103147.06;;;13.51;33.08
21109;BME280;10712;52.944;9.098;2023-02-28T11:50:46;103147.66;;;13.61;33.00
21109;BME280;10712;52.944;9.098;2023-02-28T11:56:03;103141.03;;;13.45;33.63
21109;BME280;10712;52.944;9.098;2023-02-28T11:59:35;103139.94;;;13.50;32.93
21109;BME280;10712;52.944;9.098;2023-02-28T12:02:30;103131.94;;;13.49;33.25
21109;BME280;10712;52.944;9.098;2023-02-28T12:10:36;103121.56;;;13.66;33.47
21109;BME280;10712;52.944;9.098;2023-02-28T12:13:26;103118.91;;;13.66;33.80
21109;BME280;10712;52.944;9.098;2023-02-28T12:19:16;103121.88;;;13.57;33.70
21109;BME280;10712;52.944;9.098;2023-02-28T12:24:55;103113.03;;;13.55;32.36
21109;BME280;10712;52.944;9.098;2023-02-28T12:27:33;103102.16;;;13.59;32.60
21109;BME280;10712;52.944;9.098;2023-02-28T12:32:54;103098.19;;;13.45;32.94
21109;BME280;10712;52.944;9.098;2023-02-28T12:35:33;103095.16;;;13.55;32.51
21109;BME280;10712;52.944;9.098;2023-02-28T12:38:15;103094.56;;;13.46;33.40
21109;BME280;10712;52.944;9.098;2023-02-28T12:41:00;103088.97;;;13.53;33.06
21109;BME280;10712;52.944;9.098;2023-02-28T12:43:37;103093.66;;;13.47;32.75
21109;BME280;10712;52.944;9.098;2023-02-28T12:48:57;103072.03;;;13.53;32.74
21109;BME280;10712;52.944;9.098;2023-02-28T12:51:25;103067.50;;;13.55;32.64
21109;BME280;10712;52.944;9.098;2023-02-28T12:59:55;103067.44;;;14.07;31.69
21109;BME280;10712;52.944;9.098;2023-02-28T13:10:38;103053.94;;;14.34;31.39
21109;BME280;10712;52.944;9.098;2023-02-28T13:13:04;103054.16;;;14.28;31.37
21109;BME280;10712;52.944;9.098;2023-02-28T13:15:30;103050.59;;;14.27;31.32
21109;BME280;10712;52.944;9.098;2023-02-28T13:18:00;103051.06;;;14.40;31.31
21109;BME280;10712;52.944;9.098;2023-02-28T13:20:31;103056.91;;;14.51;30.95
21109;BME280;10712;52.944;9.098;2023-02-28T13:22:59;103048.38;;;14.63;30.52
21109;BME280;10712;52.944;9.098;2023-02-28T13:28:12;103045.22;;;14.75;30.43
21109;BME280;10712;52.944;9.098;2023-02-28T13:33:35;103037.91;;;14.57;31.00
21109;BME280;10712;52.944;9.098;2023-02-28T13:36:27;103032.03;;;14.46;31.02
21109;BME280;10712;52.944;9.098;2023-02-28T13:39:03;103029.44;;;14.44;31.18
21109;BME280;10712;52.944;9.098;2023-02-28T13:41:47;103033.25;;;14.37;31.25
21109;BME280;10712;52.944;9.098;2023-02-28T13:44:22;103028.88;;;14.35;31.38
21109;BME280;10712;52.944;9.098;2023-02-28T13:52:16;103008.25;;;14.37;31.18
21109;BME280;10712;52.944;9.098;2023-02-28T13:55:22;103011.03;;;14.34;30.94
21109;BME280;10712;52.944;9.098;2023-02-28T14:04:54;103006.63;;;14.56;30.63
21109;BME280;10712;52.944;9.098;2023-02-28T14:07:33;103009.50;;;14.51;30.98
21109;BME280;10712;52.944;9.098;2023-02-28T14:10:07;103004.19;;;14.50;30.82
21109;BME280;10712;52.944;9.098;2023-02-28T14:15:46;103010.81;;;14.40;30.99
21109;BME280;10712;52.944;9.098;2023-02-28T14:18:26;103014.53;;;14.36;30.94
21109;BME280;10712;52.944;9.098;2023-02-28T14:21:08;103016.97;;;14.43;30.82
21109;BME280;10712;52.944;9.098;2023-02-28T14:30:28;103009.28;;;14.33;31.24
21109;BME280;10712;52.944;9.098;2023-02-28T14:38:51;103009.41;;;14.30;31.13
21109;BME280;10712;52.944;9.098;2023-02-28T14:41:32;103011.16;;;14.31;31.23
21109;BME280;10712;52.944;9.098;2023-02-28T14:44:03;103007.75;;;14.26;31.35
21109;BME280;10712;52.944;9.098;2023-02-28T14:46:41;103011.44;;;14.23;31.40
21109;BME280;10712;52.944;9.098;2023-02-28T14:49:36;103008.81;;;14.22;31.31
21109;BME280;10712;52.944;9.098;2023-02-28T14:52:15;103016.03;;;14.19;31.50
21109;BME280;10712;52.944;9.098;2023-02-28T14:54:44;103008.13;;;14.16;31.59
21109;BME280;10712;52.944;9.098;2023-02-28T14:57:31;103007.25;;;14.16;31.50
21109;BME280;10712;52.944;9.098;2023-02-28T15:00:22;103009.06;;;14.15;31.45
21109;BME280;10712;52.944;9.098;2023-02-28T15:02:49;103011.72;;;14.15;31.71
21109;BME280;10712;52.944;9.098;2023-02-28T15:07:45;103006.25;;;14.18;32.00
21109;BME280;10712;52.944;9.098;2023-02-28T15:10:23;103006.25;;;14.18;32.10
21109;BME280;10712;52.944;9.098;2023-02-28T15:13:02;103008.22;;;14.13;32.09
21109;BME280;10712;52.944;9.098;2023-02-28T15:16:01;103008.47;;;14.07;32.19
21109;BME280;10712;52.944;9.098;2023-02-28T15:18:49;103013.91;;;14.04;32.26
21109;BME280;10712;52.944;9.098;2023-02-28T15:21:28;103012.28;;;14.00;32.16
21109;BME280;10712;52.944;9.098;2023-02-28T15:24:11;103015.91;;;13.99;31.99
21109;BME280;10712;52.944;9.098;2023-02-28T15:26:43;103017.88;;;13.94;32.24
21109;BME280;10712;52.944;9.098;2023-02-28T15:29:19;103011.00;;;13.87;32.29
21109;BME280;10712;52.944;9.098;2023-02-28T15:34:36;103010.28;;;13.82;32.34